createdAt,value
2018-07-16T00:01:04.786Z,60.19
2018-07-16T00:03:36.015Z,60.10
2018-07-16T00:06:05.347Z,60.17
2018-07-16T00:08:34.661Z,60.47
2018-07-16T00:11:03.924Z,60.37
2018-07-16T00:13:33.783Z,60.48
2018-07-16T00:16:03.314Z,60.75
2018-07-16T00:18:34.240Z,60.63
2018-07-16T00:21:04.658Z,60.84
2018-07-16T00:23:34.870Z,60.69
2018-07-16T00:26:04.637Z,61.12
2018-07-16T00:28:33.946Z,61.02
2018-07-16T00:31:03.653Z,61.17
2018-07-16T00:33:32.927Z,61.04
2018-07-16T00:36:02.325Z,60.86
2018-07-16T00:38:32.154Z,61.33
2018-07-16T00:41:01.870Z,61.40
2018-07-16T00:43:31.790Z,61.11
2018-07-16T00:46:01.217Z,61.10
2018-07-16T00:48:30.515Z,61.47
2018-07-16T00:50:59.590Z,61.25
2018-07-16T00:53:29.641Z,61.46
2018-07-16T00:55:59.522Z,61.07
2018-07-16T00:58:28.581Z,61.09
2018-07-16T01:00:57.629Z,61.23
2018-07-16T01:03:26.695Z,61.21
2018-07-16T01:05:55.758Z,61.29
2018-07-16T01:08:24.826Z,61.19
2018-07-16T01:10:54.507Z,61.57
2018-07-16T01:13:23.569Z,61.50
2018-07-16T01:15:52.642Z,61.33
2018-07-16T01:18:22.165Z,61.37
2018-07-16T01:20:51.574Z,61.48
2018-07-16T01:23:20.810Z,61.67
2018-07-16T01:25:50.170Z,61.49
2018-07-16T01:28:19.729Z,61.37
2018-07-16T01:30:49.258Z,61.74
2018-07-16T01:33:18.680Z,61.70
2018-07-16T01:35:48.119Z,61.65
2018-07-16T01:38:18.038Z,61.57
2018-07-16T01:40:48.014Z,61.95
2018-07-16T01:43:17.437Z,61.51
2018-07-16T01:45:47.106Z,62.02
2018-07-16T01:48:16.359Z,61.75
2018-07-16T01:50:45.738Z,61.88
2018-07-16T01:53:15.059Z,61.89
2018-07-16T01:55:45.462Z,61.76
2018-07-16T01:58:15.228Z,62.04
2018-07-16T02:00:56.214Z,61.88
2018-07-16T02:03:26.591Z,61.80
2018-07-16T02:05:55.988Z,61.78
2018-07-16T02:08:26.013Z,61.99
2018-07-16T02:10:56.063Z,62.03
2018-07-16T02:13:25.845Z,62.10
2018-07-16T02:15:55.248Z,61.83
2018-07-16T02:18:25.594Z,61.94
2018-07-16T02:20:54.813Z,61.91
2018-07-16T02:23:24.122Z,62.03
2018-07-16T02:25:53.864Z,62.12
2018-07-16T02:28:23.358Z,62.17
2018-07-16T02:30:52.672Z,62.38
2018-07-16T02:33:21.962Z,62.33
2018-07-16T02:35:52.017Z,62.04
2018-07-16T02:38:21.728Z,62.26
2018-07-16T02:40:51.119Z,62.36
2018-07-16T02:43:20.422Z,62.25
2018-07-16T02:45:50.237Z,62.33
2018-07-16T02:48:20.315Z,62.26
2018-07-16T02:50:49.522Z,62.22
2018-07-16T02:53:20.293Z,62.28
2018-07-16T02:55:50.820Z,62.10
2018-07-16T02:58:20.038Z,62.32
2018-07-16T03:00:49.747Z,62.18
2018-07-16T03:03:19.917Z,62.50
2018-07-16T03:05:49.422Z,62.68
2018-07-16T03:08:19.467Z,62.46
2018-07-16T03:10:50.153Z,62.42
2018-07-16T03:13:19.972Z,62.43
2018-07-16T03:15:49.329Z,62.73
2018-07-16T03:18:19.141Z,62.34
2018-07-16T03:20:51.022Z,62.64
2018-07-16T03:23:20.432Z,62.68
2018-07-16T03:28:17.289Z,62.80
2018-07-16T03:30:46.788Z,62.52
2018-07-16T03:33:16.127Z,62.46
2018-07-16T03:35:45.349Z,62.63
2018-07-16T03:38:14.891Z,62.59
2018-07-16T03:40:44.300Z,62.77
2018-07-16T03:43:13.593Z,62.64
2018-07-16T03:45:44.040Z,62.72
2018-07-16T03:48:13.491Z,62.88
2018-07-16T03:50:42.892Z,62.74
2018-07-16T03:53:12.243Z,62.58
2018-07-16T03:55:41.682Z,62.84
2018-07-16T03:58:10.996Z,62.79
2018-07-16T04:00:40.244Z,62.96
2018-07-16T04:03:09.599Z,62.97
2018-07-16T04:05:38.939Z,62.99
2018-07-16T04:08:08.230Z,63.15
2018-07-16T04:10:41.965Z,62.88
2018-07-16T04:13:11.306Z,62.90
2018-07-16T04:15:40.527Z,62.74
2018-07-16T04:18:15.722Z,62.91
2018-07-16T04:20:45.118Z,63.23
2018-07-16T04:23:14.571Z,63.04
2018-07-16T04:25:44.412Z,63.10
2018-07-16T04:28:14.476Z,62.96
2018-07-16T04:30:45.560Z,63.23
2018-07-16T04:33:14.864Z,63.27
2018-07-16T04:35:44.767Z,62.90
2018-07-16T04:38:14.634Z,62.99
2018-07-16T04:40:44.235Z,63.23
2018-07-16T04:43:14.409Z,63.22
2018-07-16T04:45:44.363Z,63.14
2018-07-16T04:48:13.732Z,62.89
2018-07-16T04:50:46.286Z,62.96
2018-07-16T04:53:16.913Z,63.24
2018-07-16T04:55:47.204Z,62.90
2018-07-16T04:58:16.625Z,63.17
2018-07-16T05:00:45.927Z,63.20
2018-07-16T05:03:15.470Z,63.35
2018-07-16T05:05:45.551Z,63.28
2018-07-16T05:08:14.890Z,63.37
2018-07-16T05:10:44.272Z,63.04
2018-07-16T05:13:14.834Z,63.34
2018-07-16T05:15:44.158Z,63.20
2018-07-16T05:18:14.281Z,63.14
2018-07-16T05:20:43.700Z,63.18
2018-07-16T05:23:13.015Z,62.97
2018-07-16T05:25:42.291Z,63.76
2018-07-16T05:28:12.614Z,63.55
2018-07-16T05:30:42.004Z,63.13
2018-07-16T05:33:11.649Z,63.14
2018-07-16T05:35:41.357Z,62.88
2018-07-16T05:38:10.889Z,63.07
2018-07-16T05:40:40.208Z,63.06
2018-07-16T05:43:09.613Z,62.69
2018-07-16T05:45:39.231Z,62.79
2018-07-16T05:48:08.718Z,62.83
2018-07-16T05:50:38.199Z,62.43
2018-07-16T05:53:07.691Z,62.39
2018-07-16T05:55:37.262Z,62.30
2018-07-16T05:58:06.493Z,62.50
2018-07-16T06:00:36.967Z,62.60
2018-07-16T06:03:06.836Z,62.49
2018-07-16T06:05:36.980Z,62.56
2018-07-16T06:08:06.477Z,62.28
2018-07-16T06:10:39.087Z,62.52
2018-07-16T06:13:08.342Z,62.56
2018-07-16T06:15:39.268Z,62.52
2018-07-16T06:18:09.404Z,62.17
2018-07-16T06:20:40.250Z,62.29
2018-07-16T06:23:09.645Z,62.44
2018-07-16T06:25:40.415Z,62.28
2018-07-16T06:28:09.658Z,62.31
2018-07-16T06:30:39.075Z,62.11
2018-07-16T06:33:10.430Z,62.23
2018-07-16T06:35:39.690Z,62.15
2018-07-16T06:47:08.597Z,62.14
2018-07-16T06:49:38.012Z,61.65
2018-07-16T06:52:08.383Z,61.92
2018-07-16T06:54:38.429Z,61.89
2018-07-16T06:57:08.938Z,61.88
2018-07-16T06:59:38.264Z,62.11
2018-07-16T07:02:07.443Z,61.84
2018-07-16T07:04:37.781Z,61.89
2018-07-16T07:07:09.564Z,62.24
2018-07-16T07:09:46.214Z,61.97
2018-07-16T07:12:22.287Z,62.42
2018-07-16T07:14:51.645Z,62.82
2018-07-16T07:17:21.824Z,62.71
2018-07-16T07:19:52.920Z,63.02
2018-07-16T07:22:22.187Z,63.22
2018-07-16T07:24:58.920Z,63.64
2018-07-16T07:27:30.705Z,64.01
2018-07-16T07:30:02.053Z,63.86
2018-07-16T07:32:32.869Z,64.18
2018-07-16T07:35:03.483Z,64.57
2018-07-16T07:37:33.807Z,64.90
2018-07-16T07:40:03.706Z,64.87
2018-07-16T07:42:34.169Z,65.19
2018-07-16T07:45:03.620Z,65.52
2018-07-16T07:47:36.283Z,65.49
2018-07-16T07:50:06.907Z,65.34
2018-07-16T07:52:37.002Z,65.35
2018-07-16T07:55:08.039Z,65.49
2018-07-16T07:57:38.231Z,65.71
2018-07-16T08:00:11.927Z,65.88
2018-07-16T08:02:43.249Z,65.97
2018-07-16T08:05:13.314Z,65.06
2018-07-16T08:07:48.950Z,64.90
2018-07-16T08:10:22.332Z,64.44
2018-07-16T08:12:53.710Z,64.57
2018-07-16T08:15:23.896Z,64.20
2018-07-16T08:17:53.382Z,64.39
2018-07-16T08:20:25.215Z,64.47
2018-07-16T08:22:55.851Z,64.38
2018-07-16T08:25:25.312Z,64.28
2018-07-16T08:27:55.582Z,64.33
2018-07-16T08:30:25.686Z,64.47
2018-07-16T08:32:54.772Z,64.14
2018-07-16T08:35:24.687Z,64.30
2018-07-16T08:37:55.432Z,64.12
2018-07-16T08:40:25.745Z,64.21
2018-07-16T08:42:56.596Z,64.24
2018-07-16T08:45:26.078Z,64.39
2018-07-16T08:47:57.506Z,64.29
2018-07-16T08:50:28.196Z,64.39
2018-07-16T08:52:57.370Z,64.26
2018-07-16T08:55:26.529Z,64.46
2018-07-16T08:57:56.231Z,64.38
2018-07-16T09:00:25.414Z,64.16
2018-07-16T09:02:56.610Z,64.33
2018-07-16T09:05:28.584Z,64.23
2018-07-16T09:08:01.161Z,64.40
2018-07-16T09:10:30.268Z,64.18
2018-07-16T09:13:02.937Z,64.03
2018-07-16T09:15:32.575Z,64.17
2018-07-16T09:18:02.312Z,64.01
2018-07-16T09:20:35.203Z,63.84
2018-07-16T09:23:06.263Z,63.88
2018-07-16T09:25:35.405Z,64.25
2018-07-16T09:28:05.476Z,64.04
2018-07-16T09:30:34.598Z,64.23
2018-07-16T09:33:06.358Z,64.44
2018-07-16T09:35:37.650Z,64.24
2018-07-16T09:38:07.691Z,64.53
2018-07-16T09:40:38.467Z,64.57
2018-07-16T09:43:07.950Z,64.37
2018-07-16T09:45:37.396Z,64.45
2018-07-16T09:48:11.478Z,64.34
2018-07-16T09:50:40.618Z,64.36
2018-07-16T09:53:13.351Z,64.50
2018-07-16T09:58:06.894Z,64.32
2018-07-16T10:00:40.599Z,64.15
2018-07-16T10:03:10.246Z,64.23
2018-07-16T10:05:40.077Z,64.00
2018-07-16T10:08:09.505Z,63.86
2018-07-16T10:10:40.764Z,63.99
2018-07-16T10:13:10.506Z,63.72
2018-07-16T10:15:39.664Z,63.94
2018-07-16T10:18:12.512Z,63.57
2018-07-16T10:20:42.315Z,63.51
2018-07-16T10:23:12.868Z,63.68
2018-07-16T10:25:44.913Z,63.27
2018-07-16T10:28:16.254Z,63.31
2018-07-16T10:30:46.898Z,63.42
2018-07-16T10:33:19.780Z,62.95
2018-07-16T10:35:48.822Z,63.06
2018-07-16T10:38:18.012Z,63.08
2018-07-16T10:40:48.137Z,62.77
2018-07-16T10:43:17.507Z,62.76
2018-07-16T10:45:46.558Z,62.96
2018-07-16T10:48:16.266Z,62.74
2018-07-16T10:50:46.395Z,62.94
2018-07-16T10:53:15.848Z,63.00
2018-07-16T10:55:46.612Z,62.95
2018-07-16T10:58:16.915Z,62.50
2018-07-16T11:00:46.654Z,62.27
2018-07-16T11:03:15.755Z,62.29
2018-07-16T11:05:49.012Z,62.74
2018-07-16T11:08:18.415Z,62.59
2018-07-16T11:10:49.947Z,62.59
2018-07-16T11:13:19.671Z,62.60
2018-07-16T11:15:50.470Z,62.71
2018-07-16T11:18:21.634Z,62.67
2018-07-16T11:20:52.471Z,62.51
2018-07-16T11:23:25.213Z,62.90
2018-07-16T11:25:55.211Z,62.75
2018-07-16T11:28:28.276Z,62.71
2018-07-16T11:30:59.626Z,62.73
2018-07-16T11:33:30.478Z,62.67
2018-07-16T11:36:00.244Z,62.85
2018-07-16T11:38:32.143Z,62.60
2018-07-16T11:41:04.254Z,62.81
2018-07-16T11:43:36.071Z,62.70
2018-07-16T11:46:05.233Z,62.73
2018-07-16T11:48:36.887Z,62.61
2018-07-16T11:51:12.624Z,62.27
2018-07-16T11:53:44.539Z,62.32
2018-07-16T11:56:15.910Z,62.20
2018-07-16T11:58:45.965Z,61.71
2018-07-16T12:01:16.078Z,61.96
2018-07-16T12:03:48.759Z,61.99
2018-07-16T12:06:25.970Z,61.89
2018-07-16T12:08:56.242Z,61.50
2018-07-16T12:11:25.387Z,61.79
2018-07-16T12:13:56.286Z,61.64
2018-07-16T12:16:26.543Z,61.72
2018-07-16T12:18:55.644Z,62.01
2018-07-16T12:21:24.910Z,62.07
2018-07-16T12:23:57.117Z,61.81
2018-07-16T12:26:26.249Z,61.97
2018-07-16T12:29:06.620Z,61.94
2018-07-16T12:31:37.246Z,62.05
2018-07-16T12:34:06.374Z,62.08
2018-07-16T12:36:36.888Z,62.21
2018-07-16T12:39:06.966Z,62.11
2018-07-16T12:41:37.488Z,62.54
2018-07-16T12:44:07.597Z,62.16
2018-07-16T12:46:37.099Z,62.47
2018-07-16T12:49:09.593Z,62.23
2018-07-16T12:51:42.269Z,62.66
2018-07-16T12:54:11.716Z,62.08
2018-07-16T12:56:41.963Z,62.16
2018-07-16T12:59:12.156Z,62.64
2018-07-16T22:20:36.766Z,59.78
2018-07-16T22:26:07.048Z,59.90
2018-07-16T22:28:42.253Z,59.67
2018-07-16T22:34:08.678Z,59.96
2018-07-16T22:36:44.569Z,59.76
2018-07-16T22:39:22.044Z,60.18
2018-07-16T22:42:01.017Z,60.17
2018-07-16T22:44:37.131Z,59.85
2018-07-16T22:47:10.497Z,59.91
2018-07-16T22:49:43.797Z,59.90
2018-07-16T22:52:18.158Z,59.95
2018-07-16T22:54:53.336Z,60.17
2018-07-16T22:57:23.713Z,60.22
2018-07-16T22:59:55.404Z,60.51
2018-07-16T23:02:29.064Z,60.43
2018-07-16T23:05:02.610Z,60.62
2018-07-16T23:07:36.407Z,60.22
2018-07-16T23:10:15.022Z,60.57
2018-07-16T23:12:48.121Z,60.57
2018-07-16T23:15:19.173Z,60.79
2018-07-16T23:17:56.939Z,60.55
2018-07-16T23:20:30.711Z,60.56
2018-07-16T23:23:02.897Z,60.88
2018-07-16T23:25:36.095Z,60.98
2018-07-16T23:28:06.097Z,60.79
2018-07-16T23:30:40.855Z,60.59
2018-07-16T23:33:12.419Z,60.76
2018-07-16T23:35:43.583Z,61.21
2018-07-16T23:38:17.091Z,60.91
2018-07-16T23:40:52.029Z,61.19
2018-07-16T23:43:25.172Z,60.88
2018-07-16T23:45:55.626Z,60.92
2018-07-16T23:48:37.641Z,60.87
2018-07-16T23:51:09.732Z,61.12
2018-07-16T23:53:40.562Z,61.06
2018-07-16T23:56:10.136Z,60.97
2018-07-16T23:58:40.235Z,61.15
